Time;durP1;ratioP1;P1;durP2;ratioP2;P2;SDS_P1;SDS_P2;PMS_P1;PMS_P2;Temp;Humidity;BMP_temperature;BMP_pressure;BME280_temperature;BME280_humidity;BME280_pressure;Samples;Min_cycle;Max_cycle;Signal;HPM_P1;HPM_P2
2023/01/11 00:01:31;;;;;;;1999.90;999.90;;;;;;;2.15;100.00;95568.88;5110251;28;20174;-73
2023/01/11 00:03:57;;;;;;;1999.90;999.90;;;;;;;2.19;100.00;95570.50;5110138;28;20188;-74
2023/01/11 00:06:22;;;;;;;1999.90;999.90;;;;;;;2.18;100.00;95574.34;5110683;28;20164;-74
2023/01/11 00:08:47;;;;;;;1999.90;999.90;;;;;;;2.23;100.00;95570.63;5109794;28;20171;-73
2023/01/11 00:11:15;;;;;;;1999.90;999.90;;;;;;;2.20;100.00;95572.09;5110109;28;20167;-74
2023/01/11 00:13:41;;;;;;;1999.90;999.90;;;;;;;2.18;100.00;95568.16;5110066;28;20194;-74
2023/01/11 00:16:08;;;;;;;1999.90;999.90;;;;;;;2.17;100.00;95572.78;5110094;28;20164;-74
2023/01/11 00:18:35;;;;;;;1999.90;999.90;;;;;;;2.19;100.00;95567.06;5109912;28;20168;-73
2023/01/11 00:21:04;;;;;;;1999.90;999.90;;;;;;;2.22;100.00;95555.59;5109859;28;20184;-75
2023/01/11 00:23:33;;;;;;;1999.90;999.90;;;;;;;2.24;100.00;95548.72;5109800;28;20171;-74
2023/01/11 00:26:01;;;;;;;1999.90;999.90;;;;;;;2.28;100.00;95556.88;5109956;28;20168;-74
2023/01/11 00:28:27;;;;;;;1999.90;999.90;;;;;;;2.28;100.00;95557.69;5109715;28;20164;-74
2023/01/11 00:30:52;;;;;;;1999.90;999.90;;;;;;;2.20;100.00;95544.38;5109804;28;20160;-75
2023/01/11 00:33:17;;;;;;;1999.90;999.90;;;;;;;2.08;100.00;95542.53;5109784;28;20159;-74
2023/01/11 00:35:43;;;;;;;1999.90;999.90;;;;;;;2.08;100.00;95531.75;5109711;28;20171;-76
2023/01/11 00:38:08;;;;;;;1999.90;999.90;;;;;;;2.02;100.00;95525.06;5110170;28;20171;-75
2023/01/11 00:40:33;;;;;;;1999.90;999.90;;;;;;;2.03;100.00;95520.44;5109895;28;20452;-75
2023/01/11 00:48:27;;;;;;;1999.90;999.90;;;;;;;2.08;100.00;95507.50;5127351;28;20155;-77
2023/01/11 00:50:56;;;;;;;1999.90;999.90;;;;;;;2.12;100.00;95492.22;5110219;28;20247;-74
2023/01/11 00:53:21;;;;;;;1999.90;999.90;;;;;;;2.16;100.00;95490.44;5109292;28;20171;-74
2023/01/11 00:55:46;;;;;;;1999.90;999.90;;;;;;;2.21;100.00;95487.47;5109623;28;20205;-78
2023/01/11 00:58:12;;;;;;;1999.90;999.90;;;;;;;2.29;100.00;95483.81;5109375;28;20191;-78
2023/01/11 01:00:37;;;;;;;1999.90;999.90;;;;;;;2.32;100.00;95485.81;5109300;28;20163;-77
2023/01/11 01:03:03;;;;;;;1999.90;999.90;;;;;;;2.38;100.00;95481.75;5109785;28;20191;-77
2023/01/11 01:05:28;;;;;;;1999.90;999.90;;;;;;;2.42;100.00;95497.97;5109462;28;20197;-75
2023/01/11 01:07:54;;;;;;;1999.90;999.90;;;;;;;2.47;100.00;95490.41;5109216;28;20182;-82
2023/01/11 01:10:20;;;;;;;1999.90;999.90;;;;;;;2.53;100.00;95494.41;5108713;28;20160;-80
2023/01/11 01:15:30;;;;;;;1999.90;999.90;;;;;;;2.63;100.00;95510.03;5127021;28;20151;-78
2023/01/11 01:17:55;;;;;;;1999.90;999.90;;;;;;;2.65;100.00;95510.47;5109428;28;20163;-77
2023/01/11 01:20:24;;;;;;;1999.90;999.90;;;;;;;2.63;100.00;95510.03;5108858;28;20176;-77
2023/01/11 01:22:50;;;;;;;1999.90;999.90;;;;;;;2.65;100.00;95517.78;5109398;28;20192;-76
2023/01/11 01:25:15;;;;;;;1999.90;999.90;;;;;;;2.66;100.00;95508.56;5108595;28;20215;-79
2023/01/11 01:27:41;;;;;;;1999.90;999.90;;;;;;;2.63;100.00;95515.41;5108799;28;20170;-78
2023/01/11 01:30:07;;;;;;;1999.90;999.90;;;;;;;2.66;100.00;95508.56;5109237;28;20167;-78
2023/01/11 01:32:33;;;;;;;1999.90;999.90;;;;;;;2.68;100.00;95507.09;5109071;28;20164;-77
2023/01/11 01:34:58;;;;;;;1999.90;999.90;;;;;;;2.69;100.00;95497.84;5108490;28;20160;-79
2023/01/11 01:37:23;;;;;;;1999.90;999.90;;;;;;;2.72;100.00;95496.38;5108476;28;20183;-80
2023/01/11 01:39:49;;;;;;;1999.90;999.90;;;;;;;2.73;100.00;95493.31;5108532;28;20191;-79
2023/01/11 01:42:17;;;;;;;1999.90;999.90;;;;;;;2.69;100.00;95497.84;5108461;28;20159;-84
2023/01/11 01:44:55;;;;;;;1999.90;999.90;;;;;;;2.67;100.00;95489.34;5104641;28;20220;-81
2023/01/11 01:47:25;;;;;;;1999.90;999.90;;;;;;;2.68;100.00;95485.53;5105504;28;20257;-82
2023/01/11 01:49:51;;;;;;;1999.90;999.90;;;;;;;2.62;100.00;95470.75;5105237;28;20160;-80
2023/01/11 01:52:17;;;;;;;1999.90;999.90;;;;;;;2.69;100.00;95465.50;5105338;28;20164;-73
2023/01/11 01:54:46;;;;;;;1999.90;999.90;;;;;;;2.69;100.00;95449.34;5104764;28;20160;-73
2023/01/11 01:57:20;;;;;;;1999.90;999.90;;;;;;;2.76;100.00;95438.72;5104780;28;20243;-73
2023/01/11 01:59:50;;;;;;;1999.90;999.90;;;;;;;2.75;100.00;95431.78;5105297;28;20161;-73
2023/01/11 02:02:16;;;;;;;1999.90;999.90;;;;;;;2.72;100.00;95408.22;5104713;28;20172;-74
2023/01/11 02:04:43;;;;;;;1999.90;999.90;;;;;;;2.75;100.00;95377.84;5104493;28;20192;-73
2023/01/11 02:07:16;;;;;;;1999.90;999.90;;;;;;;2.73;100.00;95336.97;5104576;28;20172;-74
2023/01/11 02:10:08;;;;;;;1999.90;999.90;;;;;;;2.80;100.00;95291.31;5104498;28;20175;-77
2023/01/11 02:13:03;;;;;;;1999.90;999.90;;;;;;;2.84;100.00;95251.69;5104482;28;20164;-74
2023/01/11 02:15:29;;;;;;;1999.90;999.90;;;;;;;2.83;100.00;95217.81;5102674;28;20207;-81
2023/01/11 02:17:55;;;;;;;1999.90;999.90;;;;;;;2.89;100.00;95202.09;5104402;28;20205;-78
2023/01/11 02:20:39;;;;;;;1999.90;999.90;;;;;;;2.89;100.00;95170.56;5104324;28;20184;-81
2023/01/11 02:23:45;;;;;;;1999.90;999.90;;;;;;;2.91;100.00;95141.28;5105158;28;20202;-79
2023/01/11 02:26:48;;;;;;;1999.90;999.90;;;;;;;2.90;100.00;95066.94;5103691;28;20211;-78
2023/01/11 02:29:29;;;;;;;1999.90;999.90;;;;;;;2.88;100.00;94993.72;5104907;28;20214;-77
2023/01/11 02:32:08;;;;;;;1999.90;999.90;;;;;;;2.87;100.00;94948.25;5105077;28;20168;-78
2023/01/11 02:34:55;;;;;;;1999.90;999.90;;;;;;;2.86;100.00;94914.38;5104802;28;20196;-79
2023/01/11 02:37:35;;;;;;;1999.90;999.90;;;;;;;2.83;100.00;94864.66;5104773;28;20172;-80
2023/01/11 02:40:16;;;;;;;1999.90;999.90;;;;;;;2.87;100.00;94822.34;5104291;28;20164;-79
2023/01/11 02:45:43;;;;;;;1999.90;999.90;;;;;;;2.91;100.00;94749.56;5105072;28;20226;-81
2023/01/11 02:48:17;;;;;;;1999.90;999.90;;;;;;;2.94;100.00;94765.03;5104758;28;20152;-81
2023/01/11 02:50:57;;;;;;;1999.90;999.90;;;;;;;2.97;100.00;94740.81;5104662;28;20160;-82
2023/01/11 02:53:55;;;;;;;1999.90;999.90;;;;;;;2.99;100.00;94713.47;5104573;28;20179;-78
2023/01/11 02:56:25;;;;;;;1999.90;999.90;;;;;;;3.00;100.00;94688.84;5104537;28;20161;-81
2023/01/11 02:58:53;;;;;;;1999.90;999.90;;;;;;;3.06;100.00;94667.69;5103960;28;20164;-81
2023/01/11 03:01:21;;;;;;;1999.90;999.90;;;;;;;3.09;100.00;94648.84;5103921;28;20163;-82
2023/01/11 03:03:47;;;;;;;1999.90;999.90;;;;;;;3.12;100.00;94637.31;5103952;28;20204;-82
2023/01/11 03:06:16;;;;;;;1999.90;999.90;;;;;;;3.13;100.00;94625.38;5104489;28;20186;-82
2023/01/11 03:09:19;;;;;;;1999.90;999.90;;;;;;;3.18;100.00;94603.44;5104224;28;20267;-83
2023/01/11 03:14:43;;;;;;;1999.90;999.90;;;;;;;3.23;100.00;94578.03;5104913;28;20163;-83
2023/01/11 03:17:53;;;;;;;1999.90;999.90;;;;;;;3.25;100.00;94565.72;5104485;28;20221;-82
2023/01/11 03:20:25;;;;;;;1999.90;999.90;;;;;;;3.29;100.00;94561.13;5083292;28;20267;-78
2023/01/11 03:22:59;;;;;;;1999.90;999.90;;;;;;;3.29;100.00;94558.41;5103752;28;20169;-77
2023/01/11 03:25:45;;;;;;;1999.90;999.90;;;;;;;3.29;100.00;94554.97;5103631;28;20210;-77
2023/01/11 03:28:24;;;;;;;1999.90;999.90;;;;;;;3.30;100.00;94549.19;5104156;28;20167;-73
2023/01/11 03:31:19;;;;;;;1999.90;999.90;;;;;;;3.30;100.00;94545.72;5104178;28;20165;-72
2023/01/11 03:33:59;;;;;;;1999.90;999.90;;;;;;;3.31;100.00;94537.25;5104226;28;20165;-74
2023/01/11 03:36:55;;;;;;;1999.90;999.90;;;;;;;3.32;100.00;94528.00;5103837;28;20157;-74
2023/01/11 03:39:46;;;;;;;1999.90;999.90;;;;;;;3.37;100.00;94524.94;5104044;28;20153;-73
2023/01/11 03:42:18;;;;;;;1999.90;999.90;;;;;;;3.37;100.00;94524.94;5094207;28;20168;-73
2023/01/11 03:44:48;;;;;;;1999.90;999.90;;;;;;;3.40;100.00;94513.38;5103506;28;20216;-73
2023/01/11 03:47:16;;;;;;;1999.90;999.90;;;;;;;3.40;100.00;94513.38;5103719;28;20164;-73
2023/01/11 03:49:47;;;;;;;1999.90;999.90;;;;;;;3.42;100.00;94505.69;5103944;28;20202;-71
2023/01/11 03:52:18;;;;;;;1999.90;999.90;;;;;;;3.43;100.00;94507.22;5105405;28;20164;-72
2023/01/11 03:54:44;;;;;;;1999.90;999.90;;;;;;;3.44;100.00;94503.41;5107593;28;20161;-72
2023/01/11 03:57:15;;;;;;;1999.90;999.90;;;;;;;3.42;100.00;94491.41;5107060;28;20161;-72
2023/01/11 03:59:41;;;;;;;1999.90;999.90;;;;;;;3.45;100.00;94488.75;5107496;28;20171;-72
2023/01/11 04:02:20;;;;;;;1999.90;999.90;;;;;;;3.45;100.00;94494.16;5107460;28;20192;-71
2023/01/11 04:04:45;;;;;;;1999.90;999.90;;;;;;;3.48;100.00;94493.38;5107344;28;20220;-71
2023/01/11 04:07:11;;;;;;;1999.90;999.90;;;;;;;3.53;100.00;94483.38;5106922;28;20172;-71
2023/01/11 04:09:36;;;;;;;1999.90;999.90;;;;;;;3.58;100.00;94485.69;5107592;28;20311;-71
2023/01/11 04:12:02;;;;;;;1999.90;999.90;;;;;;;3.61;100.00;94485.72;5107261;28;20167;-73
2023/01/11 04:14:27;;;;;;;1999.90;999.90;;;;;;;3.68;100.00;94490.38;5107267;28;20172;-73
2023/01/11 04:16:52;;;;;;;1999.90;999.90;;;;;;;3.71;100.00;94495.00;5106675;28;20164;-72
2023/01/11 04:19:18;;;;;;;1999.90;999.90;;;;;;;3.77;100.00;94493.47;5106521;28;20192;-74
2023/01/11 04:21:43;;;;;;;1999.90;999.90;;;;;;;3.81;100.00;94495.03;5106567;28;20442;-75
2023/01/11 04:24:08;;;;;;;1999.90;999.90;;;;;;;3.83;100.00;94502.75;5107048;28;20184;-75
2023/01/11 04:26:34;;;;;;;1999.90;999.90;;;;;;;3.87;100.00;94506.22;5106579;28;20160;-76
2023/01/11 04:28:59;;;;;;;1999.90;999.90;;;;;;;3.90;100.00;94508.16;5106421;28;20240;-76
2023/01/11 04:31:24;;;;;;;1999.90;999.90;;;;;;;3.95;100.00;94505.06;5106650;28;20164;-77
2023/01/11 04:33:49;;;;;;;1999.90;999.90;;;;;;;3.96;100.00;94509.34;5106398;28;20172;-77
2023/01/11 04:36:15;;;;;;;1999.90;999.90;;;;;;;3.99;100.00;94511.25;5106423;28;20163;-79
2023/01/11 04:38:40;;;;;;;1999.90;999.90;;;;;;;4.02;100.00;94521.31;5106587;28;20168;-72
2023/01/11 04:43:53;;;;;;;1999.90;999.90;;;;;;;4.10;100.00;94520.16;5113579;28;20279;-74
2023/01/11 04:46:19;;;;;;;1999.90;999.90;;;;;;;4.12;100.00;94526.75;5110052;28;20363;-75
2023/01/11 04:48:44;;;;;;;1999.90;999.90;;;;;;;4.16;100.00;94526.75;5109442;28;20157;-75
2023/01/11 04:51:09;;;;;;;1999.90;999.90;;;;;;;4.19;100.00;94536.78;5109398;28;20156;-72
2023/01/11 04:53:35;;;;;;;1999.90;999.90;;;;;;;4.26;100.00;94542.94;5109248;28;20176;-72
2023/01/11 04:56:02;;;;;;;1999.90;999.90;;;;;;;4.33;100.00;94553.03;5109325;28;20156;-73
2023/01/11 04:58:29;;;;;;;1999.90;999.90;;;;;;;4.36;100.00;94561.13;5109222;28;20171;-71
2023/01/11 05:00:54;;;;;;;1999.90;999.90;;;;;;;4.41;100.00;94585.06;5109249;28;20167;-76
2023/01/11 05:03:19;;;;;;;1999.90;999.90;;;;;;;4.42;100.00;94599.34;5109601;28;20160;-75
2023/01/11 05:05:56;;;;;;;1999.90;999.90;;;;;;;4.48;100.00;94630.25;5109620;28;20190;-75
2023/01/11 05:08:23;;;;;;;1999.90;999.90;;;;;;;4.53;100.00;94648.78;5108982;28;20173;-77
2023/01/11 05:10:56;;;;;;;1999.90;999.90;;;;;;;4.56;100.00;94669.66;5109073;28;20155;-76
2023/01/11 05:13:40;;;;;;;1999.90;999.90;;;;;;;4.59;100.00;94685.13;5108905;28;20167;-75
2023/01/11 05:16:26;;;;;;;1999.90;999.90;;;;;;;4.60;100.00;94686.66;5109513;28;20173;-76
2023/01/11 05:18:55;;;;;;;1999.90;999.90;;;;;;;4.62;100.00;94714.09;5108857;28;20169;-76
2023/01/11 05:21:24;;;;;;;1999.90;999.90;;;;;;;4.66;100.00;94723.75;5108774;28;20184;-76
2023/01/11 05:23:51;;;;;;;1999.90;999.90;;;;;;;4.72;100.00;94737.66;5109161;28;20183;-76
2023/01/11 05:26:17;;;;;;;1999.90;999.90;;;;;;;4.74;100.00;94751.59;5108737;28;20160;-74
2023/01/11 05:28:44;;;;;;;1999.90;999.90;;;;;;;4.78;100.00;94776.72;5109112;28;20460;-76
2023/01/11 05:31:09;;;;;;;1999.90;999.90;;;;;;;4.80;100.00;94798.72;5109192;28;20165;-76
2023/01/11 05:33:35;;;;;;;1999.90;999.90;;;;;;;4.81;100.00;94816.53;5108446;28;20182;-75
2023/01/11 05:36:11;;;;;;;1999.90;999.90;;;;;;;4.82;100.00;94850.53;5108655;28;20244;-75
2023/01/11 05:38:36;;;;;;;1999.90;999.90;;;;;;;4.82;100.00;94867.53;5108440;28;20157;-71
2023/01/11 05:41:04;;;;;;;1999.90;999.90;;;;;;;4.90;100.00;94873.72;5108441;28;20198;-72
2023/01/11 05:43:30;;;;;;;1999.90;999.90;;;;;;;4.91;100.00;94907.75;5108013;28;20208;-75
2023/01/11 05:45:57;;;;;;;1999.90;999.90;;;;;;;4.92;100.00;94920.13;5108903;28;20233;-76
2023/01/11 05:48:23;;;;;;;1999.90;999.90;;;;;;;4.96;100.00;94937.16;5108155;28;20166;-75
2023/01/11 05:50:53;;;;;;;1999.90;999.90;;;;;;;4.95;100.00;94944.47;5108335;28;20164;-74
2023/01/11 05:53:20;;;;;;;1999.90;999.90;;;;;;;4.98;100.00;94961.88;5108178;28;20160;-75
2023/01/11 05:55:53;;;;;;;1999.90;999.90;;;;;;;4.95;100.00;94981.59;5108961;28;20188;-73
2023/01/11 05:58:18;;;;;;;1999.90;999.90;;;;;;;4.95;100.00;94989.72;5108486;28;20192;-74
2023/01/11 06:00:47;;;;;;;1999.90;999.90;;;;;;;4.95;100.00;94995.13;5107979;28;20169;-74
2023/01/11 06:03:13;;;;;;;1999.90;999.90;;;;;;;4.95;100.00;94997.81;5107881;28;20160;-75
2023/01/11 06:05:38;;;;;;;1999.90;999.90;;;;;;;4.95;100.00;95000.53;5107894;28;20223;-77
2023/01/11 06:08:03;;;;;;;1999.90;999.90;;;;;;;4.95;100.00;95000.53;5107925;28;20196;-79
2023/01/11 06:10:29;;;;;;;1999.90;999.90;;;;;;;4.94;100.00;95012.47;5107935;28;20164;-78
2023/01/11 06:13:25;;;;;;;1999.90;999.90;;;;;;;5.00;100.00;95019.09;5107779;28;20162;-75
2023/01/11 06:15:39;;;;;;;1999.90;999.90;;;;;;;4.97;100.00;95036.09;5125043;28;20492;-78
2023/01/11 06:18:05;;;;;;;1999.90;999.90;;;;;;;4.97;100.00;95036.09;5107737;28;20168;-78
2023/01/11 06:20:30;;;;;;;1999.90;999.90;;;;;;;4.98;100.00;95033.00;5107625;28;20222;-80
2023/01/11 06:22:55;;;;;;;1999.90;999.90;;;;;;;5.00;100.00;95040.75;5108097;28;20161;-81
2023/01/11 06:25:21;;;;;;;1999.90;999.90;;;;;;;5.01;100.00;95031.47;5107590;28;20193;-82
2023/01/11 06:27:46;;;;;;;1999.90;999.90;;;;;;;5.02;100.00;95041.13;5107579;28;20175;-82
2023/01/11 06:30:12;;;;;;;1999.90;999.90;;;;;;;5.04;100.00;95049.66;5107291;28;20190;-81
2023/01/11 06:32:37;;;;;;;1999.90;999.90;;;;;;;5.07;100.00;95054.31;5107274;28;20161;-81
2023/01/11 06:35:02;;;;;;;1999.90;999.90;;;;;;;5.09;100.00;95060.13;5107464;28;20196;-81
2023/01/11 06:37:28;;;;;;;1999.90;999.90;;;;;;;5.13;100.00;95063.66;5107717;28;20229;-75
2023/01/11 06:39:53;;;;;;;1999.90;999.90;;;;;;;5.13;100.00;95074.47;5107390;28;20186;-73
2023/01/11 06:42:18;;;;;;;1999.90;999.90;;;;;;;5.17;100.00;95073.34;5107353;28;20220;-75
2023/01/11 06:44:44;;;;;;;1999.90;999.90;;;;;;;5.17;100.00;95067.91;5106969;28;20217;-75
2023/01/11 06:47:09;;;;;;;1999.90;999.90;;;;;;;5.18;100.00;95074.13;5107187;28;20161;-76
2023/01/11 06:49:34;;;;;;;1999.90;999.90;;;;;;;5.23;100.00;95077.25;5107620;28;20163;-77
2023/01/11 06:52:00;;;;;;;1999.90;999.90;;;;;;;5.28;100.00;95073.41;5107150;28;20158;-78
2023/01/11 06:54:25;;;;;;;1999.90;999.90;;;;;;;5.25;100.00;95079.59;5107132;28;20197;-78
2023/01/11 06:56:50;;;;;;;1999.90;999.90;;;;;;;5.27;100.00;95082.69;5107661;28;20162;-78
2023/01/11 06:59:16;;;;;;;1999.90;999.90;;;;;;;5.29;100.00;95089.28;5107264;28;20162;-77
2023/01/11 07:01:41;;;;;;;1999.90;999.90;;;;;;;5.33;100.00;95081.19;5107060;28;20165;-77
2023/01/11 07:04:06;;;;;;;1999.90;999.90;;;;;;;5.38;100.00;95087.00;5107062;28;20252;-78
2023/01/11 07:06:34;;;;;;;1999.90;999.90;;;;;;;5.42;100.00;95105.97;5106977;28;20169;-77
2023/01/11 07:08:59;;;;;;;1999.90;999.90;;;;;;;5.45;100.00;95107.94;5107438;28;20166;-77
2023/01/11 07:11:24;;;;;;;1999.90;999.90;;;;;;;5.46;100.00;95112.22;5107013;28;20173;-76
2023/01/11 07:13:50;;;;;;;1999.90;999.90;;;;;;;5.48;100.00;95107.19;5107051;28;20174;-76
2023/01/11 07:16:16;;;;;;;1999.90;999.90;;;;;;;5.52;100.00;95113.41;5107084;28;20166;-77
2023/01/11 07:18:41;;;;;;;1999.90;999.90;;;;;;;5.54;100.00;95119.22;5107512;28;20168;-78
2023/01/11 07:21:07;;;;;;;1999.90;999.90;;;;;;;5.58;100.00;95115.34;5106750;28;20191;-77
2023/01/11 07:23:32;;;;;;;1999.90;999.90;;;;;;;5.60;100.00;95117.69;5107363;28;20230;-76
2023/01/11 07:25:58;;;;;;;1999.90;999.90;;;;;;;5.63;100.00;95122.34;5106894;28;20158;-77
2023/01/11 07:28:23;;;;;;;1999.90;999.90;;;;;;;5.68;100.00;95113.91;5110785;28;20348;-78
2023/01/11 07:30:49;;;;;;;1999.90;999.90;;;;;;;5.69;100.00;95110.03;5111285;28;20176;-77
2023/01/11 07:33:15;;;;;;;1999.90;999.90;;;;;;;5.70;100.00;95125.13;5111582;28;20238;-77
2023/01/11 07:35:40;;;;;;;1999.90;999.90;;;;;;;5.71;100.00;95129.38;5111096;28;20176;-78
2023/01/11 07:38:08;;;;;;;1999.90;999.90;;;;;;;5.74;100.00;95134.03;5111041;28;20161;-78
2023/01/11 07:40:35;;;;;;;1999.90;999.90;;;;;;;5.76;100.00;95131.75;5111099;28;20160;-77
2023/01/11 07:43:10;;;;;;;1999.90;999.90;;;;;;;5.81;100.00;95139.53;5111236;28;20238;-79
2023/01/11 07:45:37;;;;;;;1999.90;999.90;;;;;;;5.88;100.00;95142.28;5111118;28;20204;-80
2023/01/11 07:48:04;;;;;;;1999.90;999.90;;;;;;;5.88;100.00;95153.91;5111110;28;20447;-75
2023/01/11 07:50:30;;;;;;;1999.90;999.90;;;;;;;5.93;100.00;95152.75;5110529;28;20186;-75
2023/01/11 07:52:55;;;;;;;1999.90;999.90;;;;;;;5.96;100.00;95152.00;5110448;28;20356;-76
2023/01/11 07:55:21;;;;;;;1999.90;999.90;;;;;;;6.01;100.00;95143.50;5110302;28;20157;-78
2023/01/11 07:57:46;;;;;;;1999.90;999.90;;;;;;;6.06;100.00;95152.06;5110955;28;20173;-75
2023/01/11 08:00:13;;;;;;;1999.90;999.90;;;;;;;6.09;100.00;95145.09;5110258;28;20167;-75
2023/01/11 08:02:38;;;;;;;1999.90;999.90;;;;;;;6.11;100.00;95150.91;5110337;28;20478;-76
2023/01/11 08:05:04;;;;;;;1999.90;999.90;;;;;;;6.21;100.00;95164.53;5110639;28;20191;-77
2023/01/11 08:07:29;;;;;;;1999.90;999.90;;;;;;;6.24;100.00;95169.16;5110111;28;20167;-77
2023/01/11 08:09:55;;;;;;;1999.90;999.90;;;;;;;6.42;100.00;95150.28;5110520;28;20177;-77
2023/01/11 08:15:05;;;;;;;1999.90;999.90;;;;;;;6.69;100.00;95136.00;5128203;28;20149;-77
2023/01/11 08:17:30;;;;;;;1999.90;999.90;;;;;;;6.75;100.00;95152.69;5110487;28;20470;-78
2023/01/11 08:19:55;;;;;;;1999.90;999.90;;;;;;;6.80;100.00;95168.59;5109881;28;20189;-77
2023/01/11 08:22:21;;;;;;;1999.90;999.90;;;;;;;6.82;100.00;95171.69;5110360;28;20197;-79
2023/01/11 08:24:46;;;;;;;1999.90;999.90;;;;;;;6.88;100.00;95180.25;5110341;28;20199;-78
2023/01/11 08:27:12;;;;;;;1999.90;999.90;;;;;;;7.00;100.00;95169.81;5109727;28;20232;-78
2023/01/11 08:29:38;;;;;;;1999.90;999.90;;;;;;;7.06;100.00;95167.47;5110207;28;20274;-79
2023/01/11 08:32:04;;;;;;;1999.90;999.90;;;;;;;7.12;100.00;95174.84;5109729;28;20194;-80
2023/01/11 08:34:30;;;;;;;1999.90;999.90;;;;;;;7.10;100.00;95181.84;5109691;28;20188;-83
2023/01/11 08:36:56;;;;;;;1999.90;999.90;;;;;;;7.18;100.00;95178.75;5109948;28;20172;-78
2023/01/11 08:39:27;;;;;;;1999.90;999.90;;;;;;;7.23;100.00;95186.50;5109668;28;20167;-83
2023/01/11 08:41:52;;;;;;;1999.90;999.90;;;;;;;7.31;100.00;95190.78;5110224;28;20192;-75
2023/01/11 08:44:17;;;;;;;1999.90;999.90;;;;;;;7.40;100.00;95212.91;5109228;28;20221;-79
2023/01/11 08:46:43;;;;;;;1999.90;999.90;;;;;;;7.44;100.00;95224.56;5109845;28;20208;-77
2023/01/11 08:49:11;;;;;;;1999.90;999.90;;;;;;;7.44;100.00;95224.56;5109558;28;20227;-77
2023/01/11 08:51:40;;;;;;;1999.90;999.90;;;;;;;7.63;100.00;95232.31;5110262;28;20167;-75
2023/01/11 08:54:09;;;;;;;1999.90;999.90;;;;;;;7.68;100.00;95245.50;5109835;28;20343;-78
2023/01/11 08:56:35;;;;;;;1999.90;999.90;;;;;;;7.74;100.00;95246.69;5109429;28;20565;-78
2023/01/11 08:59:01;;;;;;;1999.90;999.90;;;;;;;7.88;100.00;95260.28;5110083;28;20217;-78
2023/01/11 09:01:26;;;;;;;1999.90;999.90;;;;;;;7.94;100.00;95264.16;5109747;28;20167;-80
2023/01/11 09:03:52;;;;;;;1999.90;999.90;;;;;;;8.07;100.00;95272.69;5109075;28;20164;-78
2023/01/11 09:06:17;;;;;;;1999.90;999.90;;;;;;;8.14;100.00;95273.47;5109091;28;20160;-77
2023/01/11 09:08:44;;;;;;;1999.90;999.90;;;;;;;8.22;100.00;95269.59;5109445;28;20213;-72
2023/01/11 09:11:52;;;;;;;1999.90;999.90;;;;;;;8.45;100.00;95272.66;5108856;28;20268;-77
2023/01/11 09:13:55;;;;;;;1999.90;999.90;;;;;;;8.81;100.00;95270.59;5126592;28;20167;-82
2023/01/11 09:16:20;;;;;;;1999.90;999.90;;;;;;;9.15;100.00;95285.28;5108796;28;20164;-78
2023/01/11 09:18:45;;;;;;;1999.90;999.90;;;;;;;9.32;100.00;95287.09;5108785;28;20167;-79
2023/01/11 09:21:10;;;;;;;1999.90;999.90;;;;;;;9.50;100.00;95299.47;5108806;28;20202;-82
2023/01/11 09:23:36;;;;;;;1999.90;999.90;;;;;;;9.65;100.00;95290.03;5108784;28;20258;-83
2023/01/11 09:26:01;;;;;;;1999.90;999.90;;;;;;;9.88;100.00;95297.69;5108821;28;20191;-83
2023/01/11 09:28:27;;;;;;;1999.90;999.90;;;;;;;10.23;100.00;95294.69;5109034;28;20240;-79
2023/01/11 09:30:52;;;;;;;1999.90;999.90;;;;;;;10.34;100.00;95303.56;5108724;28;20218;-77
2023/01/11 09:33:18;;;;;;;1999.90;999.90;;;;;;;10.34;100.00;95306.28;5108511;28;20358;-77
2023/01/11 09:35:45;;;;;;;1999.90;999.90;;;;;;;10.44;100.00;95308.16;5108515;28;20175;-77
2023/01/11 09:38:10;;;;;;;1999.90;999.90;;;;;;;10.41;100.00;95308.19;5108473;28;20364;-74
2023/01/11 09:41:00;;;;;;;1999.90;999.90;;;;;;;10.32;100.00;95305.16;5108523;28;20172;-75
2023/01/11 09:43:29;;;;;;;1999.90;999.90;;;;;;;10.31;100.00;95309.06;5108642;28;20329;-73
2023/01/11 09:45:59;;;;;;;1999.90;999.90;;;;;;;10.41;100.00;95302.75;5108285;28;20270;-73
2023/01/11 09:48:47;;;;;;;1999.90;999.90;;;;;;;10.58;100.00;95309.97;5108540;28;20212;-72
2023/01/11 09:51:18;;;;;;;1999.90;999.90;;;;;;;10.85;100.00;95305.44;5108607;28;20167;-76
2023/01/11 09:53:49;;;;;;;1999.90;999.90;;;;;;;11.00;100.00;95306.81;5108698;28;20175;-72
2023/01/11 09:56:23;;;;;;;1999.90;999.90;;;;;;;11.30;100.00;95304.09;5108753;28;20167;-69
2023/01/11 09:59:08;;;;;;;1999.90;999.90;;;;;;;11.47;100.00;95303.13;5108534;28;20170;-71
2023/01/11 10:02:00;;;;;;;1999.90;999.90;;;;;;;11.49;100.00;95306.19;5108784;28;20301;-70
2023/01/11 10:04:48;;;;;;;1999.90;999.90;;;;;;;11.66;100.00;95302.50;5107955;28;20193;-69
2023/01/11 10:07:33;;;;;;;1999.90;999.90;;;;;;;11.63;100.00;95306.03;5108103;28;20195;-71
2023/01/11 10:10:26;;;;;;;1999.90;999.90;;;;;;;11.47;100.00;95305.84;5108608;28;20163;-72
2023/01/11 10:12:58;;;;;;;1999.90;999.90;;;;;;;11.44;100.00;95303.94;5108358;28;20167;-71
2023/01/11 10:15:51;;;;;;;1999.90;999.90;;;;;;;11.66;100.00;95300.50;5108279;28;20189;-72
2023/01/11 10:18:32;;;;;;;1999.90;999.90;;;;;;;11.85;100.00;95307.28;5108220;28;20180;-72
2023/01/11 10:21:13;;;;;;;1999.90;999.90;;;;;;;12.27;100.00;95301.94;5108574;28;20192;-73
2023/01/11 10:23:49;;;;;;;1999.90;999.90;;;;;;;12.43;100.00;95304.03;5108183;28;20156;-73
2023/01/11 10:26:26;;;;;;;1999.90;999.90;;;;;;;12.36;100.00;95299.47;5108302;28;20164;-74
2023/01/11 10:32:09;;;;;;;1999.90;999.90;;;;;;;12.17;100.00;95310.34;5125713;28;20175;-81
2023/01/11 10:35:11;;;;;;;1999.90;999.90;;;;;;;11.95;100.00;95307.13;5108274;28;20188;-77
2023/01/11 10:37:58;;;;;;;1999.90;999.90;;;;;;;11.63;100.00;95306.03;5108263;28;20167;-77
2023/01/11 10:43:02;;;;;;;1999.90;999.90;;;;;;;11.41;100.00;95293.81;5125268;28;20168;-77
2023/01/11 10:45:52;;;;;;;1999.90;999.90;;;;;;;11.48;100.00;95294.47;5104127;28;20258;-78
2023/01/11 10:48:26;;;;;;;1999.90;999.90;;;;;;;11.49;100.00;95295.25;5104269;28;20172;-72
2023/01/11 10:51:29;;;;;;;1999.90;999.90;;;;;;;11.41;100.00;95297.34;5104498;28;20163;-73
2023/01/11 10:54:14;;;;;;;1999.90;999.90;;;;;;;11.31;100.00;95290.03;5104456;28;20249;-73
2023/01/11 10:56:51;;;;;;;1999.90;999.90;;;;;;;11.39;100.00;95291.47;5104041;28;20456;-77
2023/01/11 10:59:35;;;;;;;1999.90;999.90;;;;;;;11.39;100.00;95285.22;5104341;28;20172;-73
2023/01/11 11:02:26;;;;;;;1999.90;999.90;;;;;;;11.57;100.00;95280.31;5107087;28;20176;-75
2023/01/11 11:05:09;;;;;;;1999.90;999.90;;;;;;;11.66;100.00;95278.63;5108557;28;20558;-80
2023/01/11 11:07:59;;;;;;;1999.90;999.90;;;;;;;11.73;100.00;95269.56;5108104;28;20238;-79
2023/01/11 11:10:31;;;;;;;1999.90;999.90;;;;;;;11.68;100.00;95267.28;5108383;28;20216;-79
2023/01/11 11:13:22;;;;;;;1999.90;999.90;;;;;;;11.71;100.00;95263.72;5108258;28;20167;-78
2023/01/11 11:16:02;;;;;;;1999.90;999.90;;;;;;;11.67;100.00;95258.31;5108312;28;20513;-76
2023/01/11 11:18:27;;;;;;;1999.90;999.90;;;;;;;11.66;100.00;95261.47;5108242;28;20178;-78
2023/01/11 11:20:55;;;;;;;1999.90;999.90;;;;;;;11.82;100.00;95264.34;5107660;28;20188;-80
2023/01/11 11:23:23;;;;;;;1999.90;999.90;;;;;;;11.88;100.00;95270.91;5108113;28;20176;-78
2023/01/11 11:25:54;;;;;;;1999.90;999.90;;;;;;;11.98;100.00;95251.56;5107575;28;20388;-72
2023/01/11 11:28:26;;;;;;;1999.90;999.90;;;;;;;12.05;100.00;95256.16;5108170;28;20168;-73
2023/01/11 11:30:54;;;;;;;1999.90;999.90;;;;;;;12.16;100.00;95245.78;5107075;28;20176;-71
2023/01/11 11:33:33;;;;;;;1999.90;999.90;;;;;;;12.17;100.00;95242.66;5108326;28;20179;-73